createdAt,value
2017-09-03T00:00:16.255Z,6.30
2017-09-03T00:02:42.227Z,6.57
2017-09-03T00:05:08.166Z,6.40
2017-09-03T00:07:34.149Z,5.90
2017-09-03T00:10:00.114Z,6.03
2017-09-03T00:12:26.071Z,6.80
2017-09-03T00:14:52.041Z,6.03
2017-09-03T00:17:17.974Z,6.67
2017-09-03T00:19:43.954Z,5.90
2017-09-03T00:22:09.961Z,5.70
2017-09-03T00:24:35.941Z,9.57
2017-09-03T00:27:01.882Z,4.87
2017-09-03T00:29:27.866Z,5.80
2017-09-03T00:31:53.829Z,6.73
2017-09-03T00:34:19.765Z,5.10
2017-09-03T00:36:45.734Z,5.63
2017-09-03T00:39:11.675Z,5.80
2017-09-03T00:41:37.665Z,4.60
2017-09-03T00:44:03.601Z,5.30
2017-09-03T00:46:29.537Z,6.07
2017-09-03T00:48:55.527Z,6.20
2017-09-03T00:51:21.513Z,5.57
2017-09-03T00:53:47.446Z,5.47
2017-09-03T00:56:13.383Z,5.77
2017-09-03T00:58:39.363Z,5.40
2017-09-03T01:01:05.310Z,5.93
2017-09-03T01:03:31.289Z,6.60
2017-09-03T01:05:57.238Z,5.73
2017-09-03T01:08:23.230Z,8.20
2017-09-03T01:10:49.201Z,6.10
2017-09-03T01:13:15.133Z,5.80
2017-09-03T01:15:41.127Z,5.20
2017-09-03T01:18:07.066Z,5.70
2017-09-03T01:20:33.087Z,7.20
2017-09-03T01:22:59.040Z,5.10
2017-09-03T01:25:25.014Z,6.07
2017-09-03T01:27:50.990Z,5.80
2017-09-03T01:30:16.958Z,5.43
2017-09-03T01:32:42.946Z,5.33
2017-09-03T01:35:08.891Z,5.10
2017-09-03T01:37:34.833Z,6.57
2017-09-03T01:40:00.801Z,4.73
2017-09-03T01:42:26.798Z,6.83
2017-09-03T01:44:52.729Z,5.30
2017-09-03T01:47:18.669Z,5.70
2017-09-03T01:49:44.652Z,5.37
2017-09-03T01:52:10.592Z,4.90
2017-09-03T01:54:36.534Z,6.53
2017-09-03T01:57:02.501Z,7.10
2017-09-03T01:59:28.493Z,5.87
2017-09-03T02:01:54.481Z,6.63
2017-09-03T02:04:20.460Z,8.93
2017-09-03T02:06:46.393Z,6.03
2017-09-03T02:09:12.373Z,6.70
2017-09-03T02:11:38.326Z,5.67
2017-09-03T02:14:04.308Z,5.97
2017-09-03T02:16:30.257Z,6.67
2017-09-03T02:18:56.201Z,6.03
2017-09-03T02:21:22.189Z,5.87
2017-09-03T02:23:48.157Z,5.53
2017-09-03T02:26:14.128Z,7.23
2017-09-03T02:28:40.069Z,6.60
2017-09-03T02:31:06.050Z,7.07
2017-09-03T02:33:31.985Z,6.07
2017-09-03T02:35:57.970Z,5.00
2017-09-03T02:38:23.921Z,5.57
2017-09-03T02:40:49.900Z,5.93
2017-09-03T02:43:15.852Z,6.13
2017-09-03T02:45:41.805Z,5.73
2017-09-03T02:48:07.780Z,6.03
2017-09-03T02:50:33.712Z,7.23
2017-09-03T02:52:59.696Z,7.60
2017-09-03T02:55:25.681Z,6.80
2017-09-03T02:57:51.622Z,7.00
2017-09-03T03:00:17.581Z,6.40
2017-09-03T03:02:43.512Z,8.43
2017-09-03T03:05:09.502Z,5.73
2017-09-03T03:07:35.445Z,5.70
2017-09-03T03:10:01.402Z,6.77
2017-09-03T03:12:27.410Z,5.80
2017-09-03T03:14:53.365Z,6.23
2017-09-03T03:17:19.336Z,5.97
2017-09-03T03:19:45.271Z,5.80
2017-09-03T03:22:11.274Z,5.83
2017-09-03T03:24:37.201Z,6.13
2017-09-03T03:27:03.141Z,6.17
2017-09-03T03:29:29.125Z,5.47
2017-09-03T03:31:55.108Z,6.30
2017-09-03T03:34:21.052Z,6.60
2017-09-03T03:36:47.037Z,6.20
2017-09-03T03:39:12.981Z,6.13
2017-09-03T03:41:38.920Z,5.63
2017-09-03T03:44:04.884Z,5.80
2017-09-03T03:46:30.824Z,6.20
2017-09-03T03:48:56.805Z,6.43
2017-09-03T03:51:22.743Z,5.40
2017-09-03T03:53:48.724Z,7.93
2017-09-03T03:56:14.669Z,6.20
2017-09-03T03:58:40.636Z,5.90
2017-09-03T04:01:06.577Z,6.37
2017-09-03T04:03:32.569Z,6.00
2017-09-03T04:05:58.552Z,6.60
2017-09-03T04:08:24.493Z,6.33
2017-09-03T04:10:50.461Z,7.03
2017-09-03T04:13:16.401Z,6.73
2017-09-03T04:15:42.362Z,5.90
2017-09-03T04:18:08.301Z,7.17
2017-09-03T04:20:34.268Z,7.23
2017-09-03T04:23:00.213Z,6.23
2017-09-03T04:25:26.184Z,6.50
2017-09-03T04:27:52.152Z,12.00
2017-09-03T04:30:18.089Z,6.60
2017-09-03T04:32:44.088Z,5.83
2017-09-03T04:35:10.025Z,7.07
2017-09-03T04:37:35.965Z,7.20
2017-09-03T04:40:01.923Z,6.97
2017-09-03T04:42:27.873Z,6.07
2017-09-03T04:44:53.872Z,8.10
2017-09-03T04:47:19.823Z,6.77
2017-09-03T04:49:45.809Z,7.20
2017-09-03T04:52:11.753Z,6.83
2017-09-03T04:54:37.720Z,6.50
2017-09-03T04:57:03.700Z,6.27
2017-09-03T04:59:29.685Z,7.53
2017-09-03T05:01:55.645Z,8.40
2017-09-03T05:04:21.624Z,6.63
2017-09-03T05:06:47.589Z,8.33
2017-09-03T05:09:13.524Z,7.73
2017-09-03T05:11:39.492Z,6.70
2017-09-03T05:14:05.440Z,8.10
2017-09-03T05:16:31.414Z,7.80
2017-09-03T05:18:57.362Z,9.23
2017-09-03T05:21:23.357Z,9.17
2017-09-03T05:23:49.298Z,10.67
2017-09-03T05:26:15.285Z,9.57
2017-09-03T05:28:41.216Z,11.07
2017-09-03T05:31:07.153Z,9.80
2017-09-03T05:33:33.144Z,8.53
2017-09-03T05:35:59.093Z,8.83
2017-09-03T05:38:25.046Z,9.40
2017-09-03T05:40:51.029Z,10.10
2017-09-03T05:43:16.964Z,11.87
2017-09-03T05:45:42.916Z,10.40
2017-09-03T05:48:08.888Z,8.40
2017-09-03T05:50:34.841Z,8.43
2017-09-03T05:53:00.849Z,8.10
2017-09-03T05:55:26.840Z,9.03
2017-09-03T05:57:52.785Z,9.50
2017-09-03T06:00:18.765Z,8.87
2017-09-03T06:02:44.709Z,8.13
2017-09-03T06:05:10.682Z,10.13
2017-09-03T06:07:36.620Z,8.77
2017-09-03T06:10:02.594Z,8.80
2017-09-03T06:12:28.570Z,10.47
2017-09-03T06:14:54.522Z,8.50
2017-09-03T06:17:20.507Z,8.70
2017-09-03T06:19:46.444Z,10.20
2017-09-03T06:22:12.393Z,8.33
2017-09-03T06:24:38.374Z,9.57
2017-09-03T06:27:04.313Z,8.90
2017-09-03T06:29:30.300Z,9.83
2017-09-03T06:31:56.281Z,8.53
2017-09-03T06:34:22.212Z,9.03
2017-09-03T06:36:48.149Z,9.33
2017-09-03T06:39:14.146Z,9.80
2017-09-03T06:41:40.090Z,9.93
2017-09-03T06:44:06.032Z,10.60
2017-09-03T06:46:32.021Z,10.03
2017-09-03T06:48:57.965Z,10.80
2017-09-03T06:51:23.915Z,9.67
2017-09-03T06:53:49.929Z,9.87
2017-09-03T06:56:15.873Z,10.83
2017-09-03T06:58:41.808Z,12.03
2017-09-03T07:01:07.781Z,11.13
2017-09-03T07:03:33.716Z,9.07
2017-09-03T07:05:59.715Z,8.17
2017-09-03T07:08:25.676Z,8.37
2017-09-03T07:10:51.625Z,9.23
2017-09-03T07:13:17.597Z,9.13
2017-09-03T07:15:43.564Z,7.30
2017-09-03T07:18:09.501Z,10.43
2017-09-03T07:20:35.464Z,8.57
2017-09-03T07:23:01.449Z,9.40
2017-09-03T07:25:27.393Z,8.63
2017-09-03T07:27:53.328Z,7.73
2017-09-03T07:30:19.296Z,9.20
2017-09-03T07:32:45.244Z,7.50
2017-09-03T07:35:11.225Z,9.40
2017-09-03T07:37:37.173Z,7.20
2017-09-03T07:40:03.160Z,8.73
2017-09-03T07:42:29.105Z,8.80
2017-09-03T07:44:55.052Z,8.30
2017-09-03T07:47:21.029Z,9.63
2017-09-03T07:49:46.977Z,8.40
2017-09-03T07:52:12.921Z,8.23
2017-09-03T07:54:38.940Z,7.20
2017-09-03T07:57:04.916Z,7.63
2017-09-03T07:59:30.857Z,7.53
2017-09-03T08:01:56.800Z,7.07
2017-09-03T08:04:22.781Z,7.30
2017-09-03T08:06:48.717Z,7.27
2017-09-03T08:09:14.673Z,7.20
2017-09-03T08:11:40.666Z,7.20
2017-09-03T08:14:06.610Z,7.07
2017-09-03T08:16:32.589Z,7.93
2017-09-03T08:18:58.532Z,8.20
2017-09-03T08:21:24.505Z,5.83
2017-09-03T08:23:50.432Z,9.73
2017-09-03T08:26:16.403Z,7.07
2017-09-03T08:28:42.382Z,6.80
2017-09-03T08:31:08.367Z,8.57
2017-09-03T08:33:34.304Z,6.80
2017-09-03T08:36:00.298Z,8.63
2017-09-03T08:38:26.265Z,7.73
2017-09-03T08:40:52.219Z,7.07
2017-09-03T08:43:18.205Z,6.63
2017-09-03T08:45:44.149Z,6.47
2017-09-03T08:48:10.093Z,5.93
2017-09-03T08:50:36.061Z,9.77
2017-09-03T08:53:02.001Z,8.83
2017-09-03T08:55:27.978Z,7.00
2017-09-03T08:57:53.928Z,8.83
2017-09-03T09:00:19.887Z,7.13
2017-09-03T09:02:45.881Z,7.53
2017-09-03T09:05:11.870Z,7.97
2017-09-03T09:07:37.841Z,7.30
2017-09-03T09:10:03.778Z,6.50
2017-09-03T09:12:29.756Z,6.50
2017-09-03T09:14:55.697Z,6.87
2017-09-03T09:17:21.769Z,6.43
2017-09-03T09:19:47.729Z,6.70
2017-09-03T09:22:13.703Z,6.13
2017-09-03T09:24:39.676Z,5.80
2017-09-03T09:27:05.649Z,6.70
2017-09-03T09:29:31.593Z,7.73
2017-09-03T09:31:57.569Z,5.50
2017-09-03T09:34:23.513Z,6.13
2017-09-03T09:36:49.461Z,5.43
2017-09-03T09:39:15.437Z,6.00
2017-09-03T09:41:41.387Z,5.73
2017-09-03T09:44:07.385Z,5.27
2017-09-03T09:46:33.353Z,6.57
2017-09-03T09:48:59.305Z,6.77
2017-09-03T09:51:25.277Z,7.60
2017-09-03T09:53:51.272Z,4.30
2017-09-03T09:56:25.817Z,5.00
2017-09-03T09:58:51.895Z,4.83
2017-09-03T10:01:17.837Z,7.43
2017-09-03T10:03:43.809Z,5.20
2017-09-03T10:06:09.785Z,8.47
2017-09-03T10:08:35.750Z,4.30
2017-09-03T10:11:01.708Z,8.40
2017-09-03T10:13:27.676Z,5.40
2017-09-03T10:15:53.608Z,5.67
2017-09-03T10:18:19.569Z,5.37
2017-09-03T10:20:45.562Z,7.23
2017-09-03T10:23:11.492Z,5.43
2017-09-03T10:25:37.433Z,4.37
2017-09-03T10:28:03.435Z,6.33
2017-09-03T10:30:29.425Z,8.30
2017-09-03T10:32:55.360Z,5.40
2017-09-03T10:35:21.301Z,4.47
2017-09-03T10:37:47.325Z,4.97
2017-09-03T10:40:13.314Z,6.03
2017-09-03T10:42:39.252Z,5.87
2017-09-03T10:45:05.208Z,5.57
2017-09-03T10:47:31.193Z,5.13
2017-09-03T10:49:57.172Z,4.13
2017-09-03T10:52:23.104Z,4.40
2017-09-03T10:54:49.065Z,5.73
2017-09-03T10:57:15.042Z,3.97
2017-09-03T10:59:41.813Z,3.33
2017-09-03T11:02:07.795Z,3.70
2017-09-03T11:04:33.741Z,3.53
2017-09-03T11:06:59.697Z,4.73
2017-09-03T11:09:25.669Z,4.30
2017-09-03T11:11:51.648Z,4.80
2017-09-03T11:14:17.584Z,3.17
2017-09-03T11:16:43.536Z,3.70
2017-09-03T11:19:09.525Z,3.60
2017-09-03T11:21:35.490Z,6.60
2017-09-03T11:24:01.444Z,4.20
2017-09-03T11:26:27.435Z,3.27
2017-09-03T11:28:53.376Z,3.67
2017-09-03T11:31:19.316Z,4.60
2017-09-03T11:33:45.347Z,3.50
2017-09-03T11:36:11.289Z,3.10
2017-09-03T11:38:37.233Z,3.10
2017-09-03T11:41:03.217Z,4.20
2017-09-03T11:43:29.148Z,3.17
2017-09-03T11:45:55.125Z,2.67
2017-09-03T11:48:21.074Z,2.00
2017-09-03T11:50:47.076Z,2.40
2017-09-03T11:53:13.017Z,2.97
2017-09-03T11:55:38.957Z,3.10
2017-09-03T11:58:04.976Z,6.00
2017-09-03T12:00:30.941Z,1.87
2017-09-03T12:02:56.884Z,3.60
2017-09-03T12:05:22.837Z,2.20
2017-09-03T12:07:48.908Z,1.90
2017-09-03T12:10:14.881Z,1.30
2017-09-03T12:12:40.812Z,2.20
2017-09-03T12:15:06.823Z,1.80
2017-09-03T12:17:32.781Z,2.63
2017-09-03T12:19:58.721Z,1.97
2017-09-03T12:22:24.692Z,4.50
2017-09-03T12:24:50.624Z,2.10
2017-09-03T12:27:16.617Z,2.07
2017-09-03T12:29:42.557Z,3.70
2017-09-03T12:32:08.517Z,2.93
2017-09-03T12:34:34.510Z,2.10
2017-09-03T12:37:00.453Z,5.43
2017-09-03T12:39:26.439Z,1.77
2017-09-03T12:41:52.481Z,1.80
2017-09-03T12:44:18.417Z,2.67
2017-09-03T12:46:44.356Z,1.80
2017-09-03T12:49:10.317Z,2.50
2017-09-03T12:51:36.325Z,2.20
2017-09-03T12:54:02.281Z,2.23
2017-09-03T12:56:28.254Z,1.60
2017-09-03T12:58:54.229Z,1.97
2017-09-03T13:01:20.169Z,2.30
2017-09-03T13:03:46.157Z,2.70
2017-09-03T13:06:12.129Z,2.00
2017-09-03T13:08:38.064Z,1.90
2017-09-03T13:11:04.055Z,1.97
2017-09-03T13:13:30.033Z,2.30
2017-09-03T13:15:56.002Z,2.40
2017-09-03T13:18:21.943Z,2.40
2017-09-03T13:20:47.917Z,2.30
2017-09-03T13:23:13.870Z,3.30
2017-09-03T13:25:39.812Z,2.47
2017-09-03T13:28:05.849Z,2.30
2017-09-03T13:30:31.812Z,2.40
2017-09-03T13:32:57.790Z,3.60
2017-09-03T13:35:23.736Z,2.40
2017-09-03T13:37:49.708Z,2.83
2017-09-03T13:40:15.649Z,2.53
2017-09-03T13:42:41.629Z,2.80
2017-09-03T13:45:07.585Z,2.37
2017-09-03T13:47:33.560Z,2.90
2017-09-03T13:49:59.508Z,2.90
2017-09-03T13:52:25.497Z,2.67
2017-09-03T13:54:51.443Z,2.87
2017-09-03T13:57:17.379Z,2.27
2017-09-03T13:59:43.344Z,1.90
2017-09-03T14:02:09.308Z,2.43
2017-09-03T14:04:35.292Z,5.53
2017-09-03T14:07:01.276Z,2.30
2017-09-03T14:09:27.237Z,2.83
2017-09-03T14:11:53.229Z,2.50
2017-09-03T14:14:19.165Z,2.50
2017-09-03T14:16:45.109Z,2.00
2017-09-03T14:19:11.101Z,3.10
2017-09-03T14:21:37.051Z,2.17
2017-09-03T14:24:02.997Z,2.13
2017-09-03T14:26:28.985Z,3.63
2017-09-03T14:28:54.926Z,1.87
2017-09-03T14:31:20.864Z,1.50
2017-09-03T14:33:46.853Z,2.03
2017-09-03T14:36:12.852Z,4.80
2017-09-03T14:38:38.824Z,2.00
2017-09-03T14:41:04.765Z,2.47
2017-09-03T14:43:30.746Z,3.03
2017-09-03T14:45:56.691Z,1.77
2017-09-03T14:48:22.657Z,2.37
2017-09-03T14:50:48.617Z,2.10
2017-09-03T14:53:14.578Z,2.60
2017-09-03T14:55:40.545Z,1.80
2017-09-03T14:58:06.533Z,1.83
2017-09-03T15:00:32.469Z,2.33
2017-09-03T15:02:58.467Z,2.63
2017-09-03T15:05:24.449Z,3.57
2017-09-03T15:07:50.389Z,4.00
2017-09-03T15:10:16.424Z,1.90
2017-09-03T15:12:43.109Z,1.93
2017-09-03T15:15:09.053Z,3.33
2017-09-03T15:17:35.050Z,4.03
2017-09-03T15:20:01.020Z,2.27
2017-09-03T15:22:27.004Z,2.53
2017-09-03T15:24:53.013Z,5.13
2017-09-03T15:27:19.059Z,1.90
2017-09-03T15:29:45.054Z,3.13
2017-09-03T15:32:10.999Z,9.50
2017-09-03T15:34:37.009Z,13.23
2017-09-03T15:37:02.952Z,7.80
2017-09-03T15:39:28.893Z,5.93
2017-09-03T15:41:54.873Z,6.57
2017-09-03T15:44:20.813Z,7.80
2017-09-03T15:46:46.807Z,6.90
2017-09-03T15:49:12.804Z,5.33
2017-09-03T15:51:38.833Z,5.17
2017-09-03T15:54:04.804Z,4.70
2017-09-03T15:56:30.753Z,2.63
2017-09-03T15:58:56.736Z,2.23
2017-09-03T16:01:22.677Z,3.70
2017-09-03T16:03:48.673Z,7.27
2017-09-03T16:06:14.633Z,2.97
2017-09-03T16:08:41.320Z,5.30
2017-09-03T16:11:07.346Z,3.20
2017-09-03T16:13:33.324Z,3.00
2017-09-03T16:15:59.268Z,4.07
2017-09-03T16:18:25.252Z,2.97
2017-09-03T16:20:51.198Z,2.40
2017-09-03T16:23:17.157Z,2.93
2017-09-03T16:25:43.161Z,3.23
2017-09-03T16:28:09.106Z,2.50
2017-09-03T16:30:35.091Z,3.23
2017-09-03T16:33:01.053Z,2.47
2017-09-03T16:35:27.041Z,2.30
2017-09-03T16:37:53.044Z,2.03
2017-09-03T16:40:19.040Z,2.20
2017-09-03T16:42:44.997Z,3.83
2017-09-03T16:45:10.974Z,2.60
2017-09-03T16:47:36.939Z,3.43
2017-09-03T16:50:02.966Z,2.63
2017-09-03T16:52:28.925Z,3.47
2017-09-03T16:54:54.873Z,3.63
2017-09-03T16:57:20.866Z,3.80
2017-09-03T16:59:46.932Z,3.43
2017-09-03T17:02:12.885Z,3.07
2017-09-03T17:04:38.828Z,2.80
2017-09-03T17:07:04.803Z,3.93
2017-09-03T17:09:30.749Z,3.20
2017-09-03T17:11:56.765Z,3.20
2017-09-03T17:14:22.713Z,3.20
2017-09-03T17:16:48.669Z,2.90
2017-09-03T17:19:14.673Z,5.47
2017-09-03T17:21:40.621Z,5.20
2017-09-03T17:24:06.601Z,4.70
2017-09-03T17:26:32.629Z,4.77
2017-09-03T17:28:58.692Z,4.70
2017-09-03T17:31:24.681Z,4.80
2017-09-03T17:33:50.711Z,4.47
2017-09-03T17:36:26.705Z,6.13
2017-09-03T17:38:52.688Z,4.67
2017-09-03T17:41:20.594Z,5.37
2017-09-03T17:43:46.568Z,7.03
2017-09-03T17:46:12.514Z,6.20
2017-09-03T17:48:38.512Z,5.20
2017-09-03T17:51:04.456Z,5.90
2017-09-03T17:53:30.404Z,6.27
2017-09-03T17:55:56.382Z,6.30
2017-09-03T17:58:22.361Z,5.63
2017-09-03T18:00:48.348Z,4.17
2017-09-03T18:03:14.304Z,3.90
2017-09-03T18:05:40.294Z,5.67
2017-09-03T18:08:06.265Z,5.80
2017-09-03T18:10:32.241Z,6.80
2017-09-03T18:12:58.225Z,5.67
2017-09-03T18:15:24.178Z,5.97
2017-09-03T18:17:50.189Z,5.10
2017-09-03T18:20:16.168Z,4.40
2017-09-03T18:22:42.193Z,5.40
2017-09-03T18:25:08.188Z,3.83
2017-09-03T18:27:34.128Z,4.37
2017-09-03T18:30:00.159Z,4.03
2017-09-03T18:32:26.137Z,5.50
2017-09-03T18:34:52.120Z,5.37
2017-09-03T18:37:18.068Z,5.40
2017-09-03T18:39:44.044Z,7.30
2017-09-03T18:42:10.045Z,6.80
2017-09-03T18:44:36.001Z,6.30
2017-09-03T18:47:01.953Z,5.17
2017-09-03T18:49:29.764Z,7.00
2017-09-03T18:51:59.607Z,7.73
2017-09-03T18:54:31.722Z,7.30
2017-09-03T18:56:57.665Z,7.17
2017-09-03T18:59:38.665Z,7.10
2017-09-03T19:02:04.613Z,10.13
2017-09-03T19:04:35.498Z,8.17
2017-09-03T19:07:01.956Z,7.53
2017-09-03T19:09:27.927Z,8.17
2017-09-03T19:11:53.877Z,8.70
2017-09-03T19:14:19.873Z,9.00
2017-09-03T19:16:45.826Z,7.07
2017-09-03T19:19:12.421Z,6.73
2017-09-03T19:21:38.421Z,6.30
2017-09-03T19:24:04.374Z,8.77
2017-09-03T19:26:30.316Z,7.47
2017-09-03T19:28:56.309Z,12.30
2017-09-03T19:31:22.296Z,13.87
2017-09-03T19:33:48.313Z,10.27
2017-09-03T19:36:14.300Z,9.80
2017-09-03T19:38:42.081Z,8.57
2017-09-03T19:41:08.078Z,8.70
2017-09-03T19:43:34.061Z,7.07
2017-09-03T19:46:00.000Z,6.13
2017-09-03T19:48:25.969Z,5.80
2017-09-03T19:50:51.925Z,6.70
2017-09-03T19:53:17.945Z,4.70
2017-09-03T19:55:43.929Z,5.40
2017-09-03T19:58:09.924Z,4.50
2017-09-03T20:00:35.926Z,4.80
2017-09-03T20:03:01.873Z,5.03
2017-09-03T20:05:27.845Z,4.40
2017-09-03T20:07:53.819Z,6.33
2017-09-03T20:10:19.756Z,5.67
2017-09-03T20:12:45.733Z,5.87
2017-09-03T20:15:11.676Z,4.43
2017-09-03T20:17:37.641Z,4.57
2017-09-03T20:20:03.622Z,14.40
2017-09-03T20:22:29.604Z,4.67
2017-09-03T20:24:55.536Z,5.27
2017-09-03T20:27:21.524Z,4.90
2017-09-03T20:29:47.464Z,5.17
2017-09-03T20:32:13.400Z,5.77
2017-09-03T20:34:39.389Z,6.17
2017-09-03T20:37:05.328Z,7.67
2017-09-03T20:39:31.281Z,5.70
2017-09-03T20:41:57.241Z,6.50
2017-09-03T20:44:23.181Z,6.87
2017-09-03T20:46:49.174Z,5.47
2017-09-03T20:49:15.132Z,5.47
2017-09-03T20:51:41.061Z,5.00
2017-09-03T20:54:07.040Z,4.63
2017-09-03T20:56:32.986Z,4.80
2017-09-03T20:58:59.304Z,4.90
2017-09-03T21:01:25.236Z,4.77
2017-09-03T21:03:51.245Z,5.27
2017-09-03T21:06:17.221Z,6.93
2017-09-03T21:08:43.162Z,5.33
2017-09-03T21:11:09.111Z,6.03
2017-09-03T21:13:35.082Z,6.23
2017-09-03T21:16:01.093Z,5.60
2017-09-03T21:18:27.060Z,6.10
2017-09-03T21:20:53.048Z,5.20
2017-09-03T21:23:18.998Z,5.60
2017-09-03T21:25:45.329Z,5.63
2017-09-03T21:28:11.321Z,5.10
2017-09-03T21:30:37.252Z,5.83
2017-09-03T21:33:03.193Z,6.20
2017-09-03T21:35:29.173Z,5.33
2017-09-03T21:37:55.161Z,6.07
2017-09-03T21:40:21.112Z,5.27
2017-09-03T21:42:47.052Z,5.60
2017-09-03T21:45:13.028Z,6.10
2017-09-03T21:47:38.965Z,6.50
2017-09-03T21:50:04.908Z,5.87
2017-09-03T21:52:30.897Z,6.20
2017-09-03T21:54:56.968Z,7.67
2017-09-03T21:57:22.945Z,5.40
2017-09-03T21:59:48.914Z,5.70
2017-09-03T22:02:14.897Z,5.73
2017-09-03T22:04:40.842Z,5.80
2017-09-03T22:07:13.944Z,5.53
2017-09-03T22:09:39.892Z,6.27
2017-09-03T22:12:05.857Z,6.63
2017-09-03T22:14:31.806Z,6.50
2017-09-03T22:16:57.824Z,5.60
2017-09-03T22:19:23.764Z,5.13
2017-09-03T22:21:49.721Z,5.10
2017-09-03T22:24:15.717Z,4.80
2017-09-03T22:26:41.648Z,5.37
2017-09-03T22:29:07.632Z,4.87
2017-09-03T22:31:33.569Z,5.00
2017-09-03T22:33:59.506Z,7.40
2017-09-03T22:36:25.505Z,5.07
2017-09-03T22:38:51.450Z,5.47
2017-09-03T22:41:17.397Z,6.87
2017-09-03T22:43:43.395Z,5.43
2017-09-03T22:46:09.375Z,5.63
2017-09-03T22:48:35.384Z,5.70
2017-09-03T22:51:01.320Z,5.40
2017-09-03T22:53:27.288Z,4.37
2017-09-03T22:55:53.220Z,5.60
2017-09-03T22:58:19.198Z,4.70
2017-09-03T23:00:45.177Z,5.00
2017-09-03T23:03:11.125Z,5.80
2017-09-03T23:05:37.081Z,4.80
2017-09-03T23:08:03.047Z,4.97
2017-09-03T23:10:29.033Z,6.13
2017-09-03T23:12:54.997Z,4.00
2017-09-03T23:15:20.932Z,5.90
2017-09-03T23:17:46.896Z,4.83
2017-09-03T23:20:12.845Z,5.00
2017-09-03T23:22:38.817Z,6.20
2017-09-03T23:25:04.753Z,5.00
2017-09-03T23:27:30.716Z,4.67
2017-09-03T23:29:56.715Z,5.93
2017-09-03T23:32:22.657Z,5.17
2017-09-03T23:34:48.597Z,4.80
2017-09-03T23:37:14.569Z,6.13
2017-09-03T23:39:40.511Z,5.00
2017-09-03T23:42:06.476Z,6.27
2017-09-03T23:44:32.456Z,5.33
2017-09-03T23:46:58.388Z,4.90
2017-09-03T23:49:24.380Z,5.23
2017-09-03T23:51:50.321Z,5.93
2017-09-03T23:54:16.288Z,5.97
2017-09-03T23:56:42.225Z,5.90
2017-09-03T23:59:08.202Z,5.77
